Aviation Digital Data Service (ADDS)

Output produced by METARs form (0855 UTC 07 July 2015)
found at http://aviationweather.gov/adds/metars/
 
KLAX 070850Z 0709/0812 VRB03KT P6SM OVC012 
     FM071800 25006KT P6SM OVC015 
     FM072100 25012G18KT P6SM BKN015 
     FM080200 25010KT P6SM BKN015 
     FM080300 25006KT P6SM BKN015 
     FM080800 VRB03KT P6SM BKN015